Time;durP1;ratioP1;P1;durP2;ratioP2;P2;SDS_P1;SDS_P2;PMS_P1;PMS_P2;Temp;Humidity;BMP_temperature;BMP_pressure;BME280_temperature;BME280_humidity;BME280_pressure;Samples;Min_cycle;Max_cycle;Signal;HPM_P1;HPM_P2
2022/09/28 00:01:15;;;;;;;;;0.33;0.00;;;;;14.01;73.13;99587.38;5099554;27;45326;-44
2022/09/28 00:03:40;;;;;;;;;1.00;1.00;;;;;13.98;73.87;99589.41;5081368;27;45279;-45
2022/09/28 00:06:09;;;;;;;;;0.00;0.00;;;;;13.97;73.71;99602.97;5099918;27;45211;-43
2022/09/28 00:08:35;;;;;;;;;3.00;0.00;;;;;13.95;73.67;99603.19;5099428;27;46086;-44
2022/09/28 00:11:02;;;;;;;;;1.33;0.33;;;;;13.90;73.25;99599.41;5099862;27;45578;-44
2022/09/28 00:13:30;;;;;;;;;3.00;2.00;;;;;13.92;73.37;99597.41;5099550;27;45497;-41
2022/09/28 00:15:59;;;;;;;;;0.00;0.00;;;;;13.91;73.23;99601.91;5099470;27;45326;-49
2022/09/28 00:18:25;;;;;;;;;1.33;1.00;;;;;13.91;73.68;99601.09;5098013;27;46066;-44
2022/09/28 00:21:21;;;;;;;;;1.00;1.00;;;;;13.92;73.35;99598.22;5099093;27;45342;-42
2022/09/28 00:26:32;;;;;;;;;2.67;1.00;;;;;13.91;73.40;99593.91;4996794;28;45382;-42
2022/09/28 00:29:00;;;;;;;;;1.00;1.00;;;;;13.89;72.65;99587.09;4996379;28;45445;-42
2022/09/28 00:31:28;;;;;;;;;4.00;1.00;;;;;13.89;72.20;99592.44;4996972;28;45471;-42
2022/09/28 00:33:55;;;;;;;;;3.00;1.00;;;;;13.83;72.21;99585.22;4996973;28;45570;-42
2022/09/28 00:36:21;;;;;;;;;1.00;1.00;;;;;13.85;72.25;99592.00;4996763;28;45602;-42
2022/09/28 00:38:47;;;;;;;;;1.67;1.00;;;;;13.84;71.81;99587.69;4996574;28;46237;-42
2022/09/28 00:41:13;;;;;;;;;4.67;1.00;;;;;13.81;71.79;99593.41;4995820;28;45607;-42
2022/09/28 00:43:39;;;;;;;;;1.00;1.00;;;;;13.81;71.85;99592.59;4996784;28;45420;-43
2022/09/28 00:46:17;;;;;;;;;2.00;0.00;;;;;13.81;71.10;99601.41;4996226;28;45469;-42
2022/09/28 00:48:53;;;;;;;;;5.33;2.00;;;;;13.78;71.16;99591.16;4996076;28;46897;-47
2022/09/28 00:51:19;;;;;;;;;3.00;2.00;;;;;13.75;71.00;99590.72;4995962;28;45366;-43
2022/09/28 00:53:45;;;;;;;;;0.00;0.00;;;;;13.76;70.59;99585.16;4996136;28;45428;-44
2022/09/28 00:56:18;;;;;;;;;1.67;1.00;;;;;13.75;70.46;99593.38;4996375;28;45317;-43
2022/09/28 00:58:47;;;;;;;;;4.00;1.33;;;;;13.65;70.67;99575.84;4995679;28;46626;-43
2022/09/28 01:01:12;;;;;;;;;4.00;2.00;;;;;13.60;70.57;99561.41;5073077;28;45462;-45
2022/09/28 01:03:44;;;;;;;;;1.33;1.00;;;;;13.72;70.87;99584.72;5078336;28;45211;-42
2022/09/28 01:06:16;;;;;;;;;3.00;1.00;;;;;13.70;70.62;99584.09;5078612;28;45391;-42
2022/09/28 01:08:44;;;;;;;;;2.00;1.33;;;;;13.71;70.74;99582.25;5078102;28;47172;-41
2022/09/28 01:11:10;;;;;;;;;1.00;1.00;;;;;13.68;70.45;99579.97;5078081;28;45469;-42
2022/09/28 01:13:36;;;;;;;;;1.00;1.00;;;;;13.70;70.83;99585.94;5078239;28;45324;-40
2022/09/28 01:16:36;;;;;;;;;1.33;1.00;;;;;13.70;70.61;99586.78;5078143;28;45496;-41
2022/09/28 01:19:23;;;;;;;;;0.00;0.00;;;;;13.69;70.60;99585.13;5077909;28;47174;-43
2022/09/28 01:22:06;;;;;;;;;1.00;1.00;;;;;13.68;71.07;99579.97;5077838;28;45406;-43
2022/09/28 01:24:47;;;;;;;;;2.33;0.67;;;;;13.66;70.91;99577.50;5078337;28;45437;-41
2022/09/28 01:27:33;;;;;;;;;1.67;1.00;;;;;13.65;71.25;99577.66;5078039;28;45410;-41
2022/09/28 01:30:04;;;;;;;;;0.33;0.33;;;;;13.63;71.31;99572.53;5077255;28;46089;-41
2022/09/28 01:32:43;;;;;;;;;1.33;1.00;;;;;13.61;71.33;99571.91;5077568;28;45482;-40
2022/09/28 01:35:14;;;;;;;;;3.00;1.67;;;;;13.60;72.27;99566.75;5077981;28;45464;-41
2022/09/28 01:37:45;;;;;;;;;2.00;1.00;;;;;13.58;72.01;99563.47;5077988;28;45440;-42
2022/09/28 01:40:13;;;;;;;;;0.00;0.00;;;;;13.55;72.44;99575.34;5077727;28;45229;-45
2022/09/28 01:42:42;;;;;;;;;2.00;1.00;;;;;13.55;72.32;99582.53;5091263;27;45288;-41
2022/09/28 01:45:25;;;;;;;;;0.00;0.00;;;;;13.55;72.48;99572.69;5098197;27;45236;-43
2022/09/28 01:47:56;;;;;;;;;3.00;1.67;;;;;13.50;72.79;99561.75;5098467;27;45330;-48
2022/09/28 01:50:26;;;;;;;;;6.33;1.67;;;;;13.55;73.10;99570.00;5097748;27;46188;-43
2022/09/28 01:52:55;;;;;;;;;1.00;1.00;;;;;13.55;73.06;99561.16;5098147;27;45279;-41
2022/09/28 01:55:28;;;;;;;;;1.67;1.00;;;;;13.56;73.27;99562.81;5098195;27;45433;-50
2022/09/28 01:58:08;;;;;;;;;1.67;1.67;;;;;13.57;73.16;99561.78;5098093;27;45278;-51
2022/09/28 02:00:40;;;;;;;;;2.00;1.33;;;;;13.57;73.30;99554.63;5097551;27;46228;-41
2022/09/28 02:03:09;;;;;;;;;2.00;2.00;;;;;13.57;73.13;99554.63;5098126;27;45366;-42
2022/09/28 02:05:39;;;;;;;;;7.33;2.67;;;;;13.59;73.23;99554.41;5098048;27;45456;-44
2022/09/28 02:08:33;;;;;;;;;1.33;1.33;;;;;13.57;72.85;99561.78;5098076;27;45292;-42
2022/09/28 02:11:12;;;;;;;;;2.00;2.00;;;;;13.57;72.67;99548.41;5094769;27;46227;-43
2022/09/28 02:13:57;;;;;;;;;0.33;0.33;;;;;13.58;72.85;99544.75;5097455;27;45216;-43
2022/09/28 02:16:33;;;;;;;;;1.00;1.00;;;;;13.47;73.11;99527.41;5097412;27;45441;-43
2022/09/28 02:18:59;;;;;;;;;1.00;1.00;;;;;13.57;73.25;99549.28;5097740;27;45461;-42
2022/09/28 02:21:37;;;;;;;;;3.67;1.00;;;;;13.55;72.72;99550.47;5097472;27;46077;-43
2022/09/28 02:24:13;;;;;;;;;3.00;1.00;;;;;13.56;73.13;99552.94;5097561;27;45294;-45
2022/09/28 02:26:43;;;;;;;;;3.00;1.33;;;;;13.57;72.69;99553.75;5097579;27;45212;-43
2022/09/28 02:29:09;;;;;;;;;1.00;1.00;;;;;13.56;72.89;99552.13;5097761;27;45385;-44
2022/09/28 02:31:34;;;;;;;;;1.00;1.00;;;;;13.55;72.77;99543.28;5097414;27;45437;-45
2022/09/28 02:33:59;;;;;;;;;1.33;0.67;;;;;13.57;72.84;99548.41;5097580;27;45387;-43
2022/09/28 02:36:27;;;;;;;;;2.00;2.00;;;;;13.54;73.29;99543.50;5097821;27;45432;-43
2022/09/28 02:38:53;;;;;;;;;5.00;0.33;;;;;13.48;72.78;99526.38;5097948;27;45366;-43
2022/09/28 02:41:30;;;;;;;;;2.00;0.00;;;;;13.54;73.00;99538.97;5098852;27;46087;-51
2022/09/28 02:44:34;;;;;;;;;2.00;0.00;;;;;13.53;72.93;99548.00;5101248;27;45407;-43
2022/09/28 02:47:08;;;;;;;;;1.33;1.00;;;;;13.52;72.72;99553.53;5095895;27;45575;-50
2022/09/28 02:49:47;;;;;;;;;2.33;2.33;;;;;13.50;72.67;99534.22;5101310;27;45304;-44
2022/09/28 02:52:45;;;;;;;;;4.00;1.00;;;;;13.50;72.66;99536.88;5100684;27;46318;-41
2022/09/28 02:55:52;;;;;;;;;6.33;0.67;;;;;13.48;72.62;99537.91;5100959;27;45471;-47
2022/09/28 02:58:27;;;;;;;;;1.00;1.00;;;;;13.47;72.42;99538.09;4997743;28;45504;-42
2022/09/28 03:01:11;;;;;;;;;2.00;2.00;;;;;13.44;72.66;99552.69;4998243;28;45351;-43
2022/09/28 03:03:49;;;;;;;;;1.00;1.00;;;;;13.44;72.37;99557.16;4997738;28;45403;-42
2022/09/28 03:06:24;;;;;;;;;0.67;0.67;;;;;13.44;72.23;99549.16;4997880;28;45409;-45
2022/09/28 03:09:31;;;;;;;;;3.00;1.00;;;;;13.42;72.39;99544.03;4997654;28;45219;-44
2022/09/28 03:12:08;;;;;;;;;3.33;0.67;;;;;13.38;72.01;99539.25;4998157;28;45294;-44
2022/09/28 03:14:34;;;;;;;;;1.67;1.00;;;;;13.37;72.32;99542.97;4997469;28;46195;-46
2022/09/28 03:16:59;;;;;;;;;1.00;1.00;;;;;13.35;72.26;99536.97;4997349;28;45482;-46
2022/09/28 03:19:32;;;;;;;;;2.00;1.00;;;;;13.35;72.82;99539.63;4997780;28;45391;-45
2022/09/28 03:21:58;;;;;;;;;1.00;1.00;;;;;13.29;72.53;99535.91;4997674;28;45497;-43
2022/09/28 03:24:23;;;;;;;;;1.67;1.00;;;;;13.21;72.39;99528.00;4997358;28;46272;-44
2022/09/28 03:26:49;;;;;;;;;2.00;2.00;;;;;13.30;72.49;99545.56;4997471;28;45445;-46
2022/09/28 03:29:14;;;;;;;;;1.33;1.00;;;;;13.29;72.53;99546.59;4997512;28;45447;-44
2022/09/28 03:31:40;;;;;;;;;3.00;0.00;;;;;13.28;72.75;99544.94;4997719;28;45577;-43
2022/09/28 03:34:05;;;;;;;;;1.00;1.00;;;;;13.26;72.50;99546.16;5009927;27;45436;-42
2022/09/28 03:36:30;;;;;;;;;1.33;1.00;;;;;13.25;72.56;99553.34;5100260;27;45425;-44
2022/09/28 03:38:56;;;;;;;;;2.67;1.67;;;;;13.25;72.64;99563.19;5100258;27;45538;-43
2022/09/28 03:41:26;;;;;;;;;2.00;1.00;;;;;13.22;72.67;99549.19;5100077;27;45496;-44
2022/09/28 03:43:52;;;;;;;;;2.00;1.00;;;;;13.22;72.37;99556.34;5100055;27;46557;-41
2022/09/28 03:46:17;;;;;;;;;1.00;1.00;;;;;13.16;72.42;99551.78;5099799;27;45334;-41
2022/09/28 03:48:42;;;;;;;;;0.67;0.67;;;;;13.17;72.74;99562.28;5099902;27;45323;-41
2022/09/28 03:51:10;;;;;;;;;2.00;2.00;;;;;13.16;72.78;99570.50;5100299;27;45416;-45
2022/09/28 03:53:36;;;;;;;;;3.33;2.00;;;;;13.14;72.74;99570.66;5099482;27;45947;-42
2022/09/28 03:56:07;;;;;;;;;2.00;0.67;;;;;13.15;72.71;99571.50;5099849;27;45393;-44
2022/09/28 03:58:33;;;;;;;;;1.00;1.00;;;;;13.15;72.67;99569.66;5100003;27;45378;-43
2022/09/28 04:01:07;;;;;;;;;0.00;0.00;;;;;13.15;72.28;99576.84;5100040;27;45277;-43
2022/09/28 04:03:33;;;;;;;;;2.00;1.67;;;;;13.10;72.81;99555.22;5099611;27;45599;-43
2022/09/28 04:05:59;;;;;;;;;3.00;1.00;;;;;13.12;73.23;99570.03;5099556;27;45467;-41
2022/09/28 04:08:25;;;;;;;;;1.00;1.00;;;;;13.15;72.93;99566.19;5099691;27;45369;-42
2022/09/28 04:10:50;;;;;;;;;2.00;2.00;;;;;13.15;73.08;99571.50;5099824;27;45645;-43
2022/09/28 04:13:16;;;;;;;;;2.33;2.33;;;;;13.14;73.45;99575.19;5099767;27;45280;-42
2022/09/28 04:15:42;;;;;;;;;1.00;1.00;;;;;13.13;73.19;99584.22;5099715;27;47164;-43
2022/09/28 04:18:12;;;;;;;;;3.00;2.00;;;;;13.12;73.28;99578.06;5099496;27;45346;-43
2022/09/28 04:20:40;;;;;;;;;3.00;1.00;;;;;13.12;72.74;99580.72;5099648;27;45397;-43
2022/09/28 04:23:06;;;;;;;;;2.00;2.00;;;;;13.06;72.90;99573.50;5099278;27;46982;-42
2022/09/28 04:25:31;;;;;;;;;2.00;2.00;;;;;13.08;72.90;99575.97;5099270;27;45343;-45
2022/09/28 04:30:40;;;;;;;;;1.00;1.00;;;;;13.08;72.74;99589.31;5099675;27;45335;-44
2022/09/28 04:33:05;;;;;;;;;3.67;2.33;;;;;13.06;72.93;99589.50;5098981;27;45942;-42
2022/09/28 04:35:31;;;;;;;;;1.00;0.67;;;;;13.08;73.09;99587.47;5099195;27;45449;-43
2022/09/28 04:37:56;;;;;;;;;2.33;1.00;;;;;13.12;73.14;99588.72;5099271;27;45457;-41
2022/09/28 04:40:22;;;;;;;;;0.00;0.00;;;;;13.14;72.85;99591.19;5080851;27;45586;-43
2022/09/28 04:42:54;;;;;;;;;2.00;1.00;;;;;13.13;72.42;99586.88;5098715;27;45531;-43
2022/09/28 04:45:20;;;;;;;;;1.67;1.33;;;;;13.07;72.87;99588.47;5099139;27;45339;-42
2022/09/28 04:47:45;;;;;;;;;1.67;0.67;;;;;13.14;72.50;99600.03;5098985;27;45342;-43
2022/09/28 04:53:03;;;;;;;;;6.00;2.00;;;;;13.18;72.27;99608.50;5015269;28;46074;-41
2022/09/28 04:55:31;;;;;;;;;1.33;0.33;;;;;13.18;72.50;99600.47;5016974;28;45305;-42
2022/09/28 04:58:02;;;;;;;;;2.00;1.00;;;;;13.18;72.20;99603.97;5016686;28;45287;-41
2022/09/28 05:00:32;;;;;;;;;3.00;1.00;;;;;13.17;72.08;99599.66;5017004;28;45366;-42
2022/09/28 05:02:57;;;;;;;;;4.67;1.00;;;;;13.14;71.88;99594.69;5016315;28;46925;-43
2022/09/28 05:05:23;;;;;;;;;3.33;1.00;;;;;13.17;72.32;99606.84;5016227;28;45407;-42
2022/09/28 05:07:48;;;;;;;;;4.00;2.00;;;;;13.18;72.77;99603.16;5016957;28;45343;-42
2022/09/28 05:10:14;;;;;;;;;5.33;2.00;;;;;13.17;72.26;99606.84;5016905;28;45244;-42
2022/09/28 05:12:39;;;;;;;;;5.33;3.00;;;;;13.18;72.22;99597.81;5016673;28;46049;-43
2022/09/28 05:15:05;;;;;;;;;1.67;1.67;;;;;13.10;72.42;99587.25;5016778;28;45310;-45
2022/09/28 05:17:30;;;;;;;;;2.67;1.67;;;;;13.20;72.67;99595.78;5016576;28;45422;-43
2022/09/28 05:19:56;;;;;;;;;3.67;2.00;;;;;13.19;72.17;99592.31;5016881;28;45446;-45
2022/09/28 05:22:21;;;;;;;;;2.00;2.00;;;;;13.19;72.39;99594.97;5016721;28;47091;-47
2022/09/28 05:24:46;;;;;;;;;4.00;2.00;;;;;13.16;72.71;99584.66;5016495;28;45460;-43
2022/09/28 05:27:12;;;;;;;;;6.33;2.33;;;;;13.14;72.36;99601.88;5016958;28;45395;-46
2022/09/28 05:29:37;;;;;;;;;6.00;2.00;;;;;13.13;72.29;99586.88;5017258;28;45590;-45
2022/09/28 05:32:02;;;;;;;;;6.67;2.00;;;;;13.11;72.22;99578.25;5031923;28;49588;-44
2022/09/28 05:34:28;;;;;;;;;1.00;1.00;;;;;13.11;72.67;99584.41;5035931;28;45446;-44
2022/09/28 05:36:54;;;;;;;;;5.33;2.67;;;;;13.09;72.20;99591.78;5035893;28;45328;-43
2022/09/28 05:39:19;;;;;;;;;2.00;2.00;;;;;13.07;72.16;99591.16;5036454;28;45369;-44
2022/09/28 05:41:45;;;;;;;;;4.00;1.33;;;;;13.07;72.56;99596.50;5035624;28;45762;-42
2022/09/28 05:44:10;;;;;;;;;4.00;2.00;;;;;13.08;72.82;99594.66;5034391;28;45316;-43
2022/09/28 05:46:35;;;;;;;;;4.00;2.33;;;;;13.09;72.09;99599.78;5015532;28;45420;-44
2022/09/28 05:49:01;;;;;;;;;1.67;1.33;;;;;13.11;72.15;99600.44;5020348;28;45230;-45
2022/09/28 05:51:26;;;;;;;;;4.67;2.00;;;;;13.13;72.50;99601.06;5034858;28;45979;-43
2022/09/28 05:53:55;;;;;;;;;8.67;3.00;;;;;13.14;72.58;99602.69;5033799;28;45422;-44
2022/09/28 05:56:21;;;;;;;;;3.33;1.33;;;;;13.14;72.21;99609.88;5016290;28;45423;-41
2022/09/28 05:58:46;;;;;;;;;2.00;2.00;;;;;13.16;72.21;99616.72;5034778;28;45402;-42
2022/09/28 06:01:12;;;;;;;;;4.00;2.00;;;;;13.16;71.78;99607.88;5033266;28;45961;-41
2022/09/28 06:03:37;;;;;;;;;2.67;2.00;;;;;13.18;71.91;99619.19;5035380;28;45467;-43
2022/09/28 06:06:02;;;;;;;;;2.00;2.00;;;;;13.18;71.34;99617.31;5035537;28;45426;-41
2022/09/28 06:08:30;;;;;;;;;3.00;3.00;;;;;13.20;71.55;99617.97;5035951;28;45391;-42
2022/09/28 06:10:59;;;;;;;;;3.00;3.00;;;;;13.22;71.26;99621.31;5035525;28;45289;-41
2022/09/28 06:13:24;;;;;;;;;2.00;1.67;;;;;13.24;70.75;99613.13;5035316;28;45376;-42
2022/09/28 06:15:50;;;;;;;;;4.67;2.00;;;;;13.24;70.69;99610.44;5034400;28;45525;-42
2022/09/28 06:18:15;;;;;;;;;3.33;1.33;;;;;13.30;70.23;99608.84;5035813;28;45399;-43
2022/09/28 06:20:41;;;;;;;;;2.33;2.33;;;;;13.32;70.19;99612.97;5035338;28;46902;-42
2022/09/28 06:23:11;;;;;;;;;5.00;3.00;;;;;13.34;70.30;99620.78;5035654;28;45455;-45
2022/09/28 06:25:37;;;;;;;;;4.00;3.00;;;;;13.35;70.33;99625.13;5035714;28;45205;-43
2022/09/28 06:28:11;;;;;;;;;2.00;2.00;;;;;13.38;70.26;99622.06;5035848;28;45335;-42
2022/09/28 06:30:37;;;;;;;;;2.00;2.00;;;;;13.42;70.61;99626.84;5035469;28;45282;-42
2022/09/28 06:33:05;;;;;;;;;5.33;2.00;;;;;13.45;70.01;99636.31;5035583;28;45452;-44
2022/09/28 06:35:31;;;;;;;;;3.00;3.00;;;;;13.48;69.74;99634.09;5035554;28;45491;-42
2022/09/28 06:37:58;;;;;;;;;4.00;2.00;;;;;13.50;69.91;99628.53;5035605;28;45559;-42
2022/09/28 06:40:24;;;;;;;;;2.00;2.00;;;;;13.57;69.71;99633.94;5035166;28;45571;-43
2022/09/28 06:42:58;;;;;;;;;4.33;1.33;;;;;13.62;69.15;99635.03;5035625;28;45285;-41
2022/09/28 06:45:25;;;;;;;;;3.67;2.33;;;;;13.66;69.06;99641.63;5035531;28;45367;-41
2022/09/28 06:47:58;;;;;;;;;4.00;2.33;;;;;13.68;69.29;99639.56;5035790;28;45307;-42
2022/09/28 06:50:37;;;;;;;;;3.33;2.00;;;;;13.61;69.19;99628.03;5035194;28;46213;-42
2022/09/28 06:53:05;;;;;;;;;2.67;2.33;;;;;13.79;68.93;99650.78;5035247;28;45860;-43
2022/09/28 06:55:30;;;;;;;;;4.00;2.00;;;;;13.85;68.63;99645.47;5035372;28;45461;-43
2022/09/28 06:58:01;;;;;;;;;1.67;1.67;;;;;13.97;68.49;99654.59;5035472;28;45389;-42
2022/09/28 07:00:28;;;;;;;;;2.00;2.00;;;;;14.07;67.28;99662.25;5035121;28;47088;-42
2022/09/28 07:02:53;;;;;;;;;8.67;7.00;;;;;14.19;67.34;99662.56;5035009;28;45356;-44
2022/09/28 07:05:25;;;;;;;;;3.00;3.00;;;;;14.29;67.04;99659.53;5035409;28;45315;-43
2022/09/28 07:07:54;;;;;;;;;7.33;2.00;;;;;14.38;66.28;99667.19;5035323;28;45401;-43
2022/09/28 07:10:21;;;;;;;;;2.00;2.00;;;;;14.46;66.17;99663.53;5035073;28;46393;-43
2022/09/28 07:12:47;;;;;;;;;6.00;2.00;;;;;14.51;65.81;99668.31;5034969;28;45340;-42
2022/09/28 07:15:12;;;;;;;;;4.33;1.00;;;;;14.54;65.27;99670.59;5017112;28;45478;-42
2022/09/28 07:17:38;;;;;;;;;2.33;2.00;;;;;14.55;65.43;99673.09;5035243;28;45344;-43
2022/09/28 07:20:04;;;;;;;;;7.50;2.00;;;;;14.60;65.38;99677.84;5035122;28;46158;-44
2022/09/28 07:22:29;;;;;;;;;2.00;2.00;;;;;14.52;65.32;99652.06;5034889;28;45364;-42
2022/09/28 07:24:56;;;;;;;;;1.33;1.00;;;;;14.65;64.87;99670.84;5034948;28;45366;-42
2022/09/28 07:27:22;;;;;;;;;4.33;3.00;;;;;14.70;64.71;99673.75;5036785;28;45400;-42
2022/09/28 07:29:47;;;;;;;;;6.67;2.67;;;;;14.75;64.44;99675.84;5037908;28;46207;-41
2022/09/28 07:32:12;;;;;;;;;7.33;3.00;;;;;14.79;64.48;99682.47;5038300;28;45296;-42
2022/09/28 07:34:44;;;;;;;;;2.67;2.67;;;;;14.79;63.94;99676.25;5038304;28;45358;-42
2022/09/28 07:37:11;;;;;;;;;4.00;2.00;;;;;14.86;62.38;99685.16;5038118;28;45495;-47
2022/09/28 07:41:10;;;;;;;;;1.67;1.00;;;;;14.97;61.38;99685.41;5038025;28;46227;-44
2022/09/28 07:42:23;;;;;;;;;0.00;0.00;;;;;15.14;60.27;99685.03;5038098;28;45292;-43
2022/09/28 07:44:49;;;;;;;;;1.00;1.00;;;;;15.25;60.11;99680.94;5038268;28;45391;-44
2022/09/28 07:47:15;;;;;;;;;1.00;1.00;;;;;15.35;59.87;99686.72;5038392;28;45404;-42
2022/09/28 07:49:40;;;;;;;;;4.67;1.00;;;;;15.50;59.20;99690.03;5037834;28;46604;-43
2022/09/28 07:52:05;;;;;;;;;3.00;1.67;;;;;15.56;58.76;99685.72;5037814;28;45524;-43
2022/09/28 07:54:31;;;;;;;;;2.67;1.67;;;;;15.59;58.31;99693.34;5038047;28;45378;-44
2022/09/28 07:56:56;;;;;;;;;2.00;2.00;;;;;15.68;58.48;99706.41;5038102;28;45452;-43
2022/09/28 07:59:21;;;;;;;;;4.00;1.00;;;;;15.75;58.13;99702.88;5037515;28;45984;-47
2022/09/28 08:01:50;;;;;;;;;1.00;1.00;;;;;15.79;58.52;99704.94;5037310;28;45447;-42
2022/09/28 08:04:15;;;;;;;;;1.67;1.00;;;;;15.92;58.29;99712.16;5037714;28;45446;-43
2022/09/28 08:06:42;;;;;;;;;1.00;1.00;;;;;16.09;57.33;99701.84;5037598;28;45356;-45
2022/09/28 08:09:08;;;;;;;;;2.00;1.00;;;;;16.28;56.32;99706.38;5030331;28;45409;-44
2022/09/28 08:11:33;;;;;;;;;3.00;1.00;;;;;16.51;56.14;99711.25;5017158;28;45447;-43
2022/09/28 08:13:59;;;;;;;;;0.33;0.00;;;;;16.76;54.97;99700.69;5017660;28;45357;-43
2022/09/28 08:16:26;;;;;;;;;1.67;0.67;;;;;17.08;54.59;99693.53;5018037;28;45373;-42
2022/09/28 08:18:52;;;;;;;;;2.00;2.00;;;;;17.36;54.26;99706.59;5017464;28;45363;-45
2022/09/28 08:24:04;;;;;;;;;2.00;1.00;;;;;17.57;52.88;99716.19;5017329;28;45443;-43
2022/09/28 08:26:29;;;;;;;;;2.67;1.00;;;;;17.67;53.04;99713.00;5017382;28;45359;-45
2022/09/28 08:28:54;;;;;;;;;1.00;1.00;;;;;17.74;52.37;99724.59;5016978;28;46310;-45
2022/09/28 08:31:19;;;;;;;;;3.75;2.00;;;;;17.74;51.87;99711.13;5017375;28;45844;-42
2022/09/28 08:33:45;;;;;;;;;2.00;1.00;;;;;18.01;51.07;99717.13;5016813;28;45709;-43
2022/09/28 08:36:10;;;;;;;;;2.00;1.75;;;;;18.23;49.70;99716.72;5017422;28;45506;-43
2022/09/28 08:38:36;;;;;;;;;1.00;1.00;;;;;19.17;47.85;99713.59;5015706;28;45974;-43
2022/09/28 08:41:14;;;;;;;;;3.00;1.25;;;;;20.40;45.89;99698.56;5017230;28;45454;-43
2022/09/28 08:44:04;;;;;;;;;2.25;2.25;;;;;21.31;44.68;99711.50;5016993;28;45459;-45
2022/09/28 08:46:36;;;;;;;;;3.75;1.00;;;;;21.03;43.58;99696.13;5017190;28;45445;-44
2022/09/28 08:49:24;;;;;;;;;3.50;1.00;;;;;21.09;45.14;99725.72;5016902;28;47036;-45
2022/09/28 08:52:01;;;;;;;;;3.00;1.75;;;;;23.21;40.79;99727.69;5017027;28;45663;-44
2022/09/28 08:54:50;;;;;;;;;2.00;1.20;;;;;24.07;38.85;99713.31;5017101;28;45444;-46
2022/09/28 08:57:26;;;;;;;;;1.00;1.00;;;;;24.11;38.34;99709.00;5017281;28;45448;-44
2022/09/28 08:59:54;;;;;;;;;3.00;2.00;;;;;24.18;37.82;99712.28;5016965;28;47169;-45
2022/09/28 09:02:28;;;;;;;;;2.40;1.60;;;;;23.52;39.01;99714.47;5016818;28;45481;-45
2022/09/28 09:04:55;;;;;;;;;2.00;2.00;;;;;23.02;39.02;99707.41;5017105;28;45407;-44
2022/09/28 09:07:24;;;;;;;;;1.75;1.00;;;;;22.74;39.01;99716.53;5017087;28;45541;-45
2022/09/28 09:10:17;;;;;;;;;2.00;2.00;;;;;22.63;40.43;99712.88;5016666;28;47002;-44
2022/09/28 09:12:59;;;;;;;;;1.00;1.00;;;;;22.38;39.83;99716.06;5008584;28;45392;-43
2022/09/28 09:15:37;;;;;;;;;3.00;1.60;;;;;21.86;40.62;99719.00;5016737;28;45523;-44
2022/09/28 09:18:36;;;;;;;;;4.75;2.50;;;;;21.48;41.59;99711.56;5016654;28;45480;-43
2022/09/28 09:21:14;;;;;;;;;2.00;2.00;;;;;21.16;41.93;99714.75;5016607;28;45997;-45
2022/09/28 09:23:54;;;;;;;;;4.80;1.80;;;;;20.97;42.59;99714.09;5016404;28;45420;-45
2022/09/28 09:26:30;;;;;;;;;2.60;2.00;;;;;20.85;42.57;99713.31;5016874;28;45385;-43
2022/09/28 09:29:27;;;;;;;;;0.50;0.50;;;;;21.11;42.28;99733.56;5016697;28;45356;-44
2022/09/28 09:32:07;;;;;;;;;1.00;1.00;;;;;21.89;39.98;99732.88;5009818;28;45920;-45
2022/09/28 09:34:58;;;;;;;;;1.80;1.80;;;;;22.03;39.98;99725.22;5016188;28;45396;-45
2022/09/28 09:37:55;;;;;;;;;1.40;1.00;;;;;21.91;39.97;99724.50;5016254;28;45745;-47
2022/09/28 09:40:53;;;;;;;;;4.00;1.00;;;;;22.04;40.28;99726.06;5016653;28;45421;-44
2022/09/28 09:43:36;;;;;;;;;3.00;1.50;;;;;21.95;39.92;99717.50;5001830;28;45491;-49
2022/09/28 09:46:22;;;;;;;;;4.20;1.60;;;;;22.16;39.38;99708.69;5016213;28;45390;-43
2022/09/28 09:49:05;;;;;;;;;1.60;1.60;;;;;22.56;38.96;99723.06;5016156;28;45384;-45
2022/09/28 09:52:04;;;;;;;;;2.50;2.00;;;;;23.10;40.18;99713.22;5015990;28;45376;-46
2022/09/28 09:54:37;;;;;;;;;2.60;2.40;;;;;23.82;37.30;99711.22;5016242;28;45353;-46
2022/09/28 09:57:10;;;;;;;;;1.00;1.00;;;;;24.23;36.47;99708.78;5016148;28;45290;-46
2022/09/28 09:59:40;;;;;;;;;2.40;2.00;;;;;24.29;35.96;99710.47;4998373;28;45384;-42
2022/09/28 10:02:14;;;;;;;;;3.40;1.60;;;;;23.71;37.34;99707.59;5016163;28;45349;-43
2022/09/28 10:04:45;;;;;;;;;2.00;1.00;;;;;24.37;36.88;99712.72;5015282;28;45420;-42
2022/09/28 10:07:20;;;;;;;;;2.60;1.80;;;;;25.28;34.30;99703.34;5015815;28;45524;-43
2022/09/28 10:09:50;;;;;;;;;1.00;1.00;;;;;25.98;32.52;99695.53;5016153;28;45360;-46
2022/09/28 10:12:19;;;;;;;;;1.80;1.80;;;;;25.78;32.74;99691.72;5016025;28;45429;-43
2022/09/28 10:14:45;;;;;;;;;1.60;1.60;;;;;25.39;32.01;99707.72;5015153;28;45500;-43
2022/09/28 10:17:17;;;;;;;;;2.00;2.00;;;;;25.53;33.38;99711.53;5015126;28;45342;-44
2022/09/28 10:19:43;;;;;;;;;3.00;3.00;;;;;26.40;31.17;99702.53;5015831;28;45424;-46
2022/09/28 10:22:14;;;;;;;;;3.00;3.00;;;;;26.52;31.54;99698.44;5015721;28;45397;-45
2022/09/28 10:24:44;;;;;;;;;2.00;2.00;;;;;26.52;32.28;99706.63;5015363;28;46224;-43
2022/09/28 10:27:17;;;;;;;;;2.00;1.80;;;;;25.67;32.70;99706.41;5015571;28;45278;-43
2022/09/28 10:29:49;;;;;;;;;2.20;1.80;;;;;24.72;32.67;99700.41;5006987;28;45518;-43
2022/09/28 10:32:45;;;;;;;;;3.40;3.40;;;;;23.67;34.42;99711.09;5015799;28;45825;-43
2022/09/28 10:35:30;;;;;;;;;2.80;1.00;;;;;22.84;35.48;99705.81;5008589;28;45908;-43
2022/09/28 10:37:55;;;;;;;;;3.00;1.00;;;;;22.13;36.14;99711.91;5014974;28;45400;-43
2022/09/28 10:40:39;;;;;;;;;1.00;1.00;;;;;22.92;36.81;99708.09;5015648;28;45379;-46
2022/09/28 10:43:15;;;;;;;;;2.00;2.00;;;;;23.76;35.23;99707.63;5015669;28;45376;-43
2022/09/28 10:45:41;;;;;;;;;6.00;3.00;;;;;23.56;34.68;99705.53;5015122;28;45630;-49
2022/09/28 10:48:16;;;;;;;;;3.75;2.00;;;;;22.93;35.83;99700.81;5015075;28;45404;-43
2022/09/28 10:50:42;;;;;;;;;3.00;1.80;;;;;23.89;34.46;99695.50;5015276;28;45376;-46
2022/09/28 10:53:26;;;;;;;;;1.75;1.75;;;;;23.44;35.32;99690.50;5015639;28;45423;-42
2022/09/28 10:56:01;;;;;;;;;2.20;1.60;;;;;27.57;30.42;99691.09;5015258;28;45521;-43
2022/09/28 10:58:34;;;;;;;;;0.80;0.80;;;;;29.31;27.03;99690.88;5015053;28;45425;-45
2022/09/28 11:01:08;;;;;;;;;1.00;1.00;;;;;30.17;26.63;99689.81;5015308;28;45314;-46
2022/09/28 11:03:46;;;;;;;;;1.60;1.60;;;;;28.49;28.49;99693.84;5018060;28;45340;-43
2022/09/28 11:06:11;;;;;;;;;4.40;2.00;;;;;26.89;29.69;99704.59;5018293;28;47442;-45
2022/09/28 11:08:41;;;;;;;;;2.75;1.00;;;;;25.71;31.80;99701.22;5018576;28;45474;-42
2022/09/28 11:11:11;;;;;;;;;4.40;1.20;;;;;24.85;33.20;99708.88;5018439;28;45526;-43
2022/09/28 11:13:43;;;;;;;;;2.20;2.20;;;;;25.15;32.13;99701.94;5018887;28;45652;-44
2022/09/28 11:16:19;;;;;;;;;3.00;2.00;;;;;25.60;32.57;99705.84;5018323;28;45481;-48
2022/09/28 11:18:44;;;;;;;;;5.40;3.00;;;;;24.80;32.48;99702.63;5018357;28;45364;-43
2022/09/28 11:21:20;;;;;;;;;0.50;0.50;;;;;24.01;33.95;99707.00;5018376;28;45413;-43
2022/09/28 11:24:15;;;;;;;;;2.00;2.00;;;;;23.06;35.55;99708.56;5010887;28;45604;-44
2022/09/28 11:26:44;;;;;;;;;4.20;2.60;;;;;22.32;35.83;99698.06;4991087;28;46433;-47
2022/09/28 11:29:19;;;;;;;;;1.00;1.00;;;;;22.59;36.44;99711.75;5018468;28;45460;-44
2022/09/28 11:31:46;;;;;;;;;3.20;2.80;;;;;23.52;35.11;99709.03;5018325;28;45439;-43
2022/09/28 11:34:35;;;;;;;;;2.80;2.80;;;;;25.75;32.89;99705.06;5018749;28;45508;-45
2022/09/28 11:37:15;;;;;;;;;5.40;1.60;;;;;26.55;31.58;99695.19;5018259;28;46417;-52
2022/09/28 11:40:02;;;;;;;;;4.60;3.00;;;;;26.54;30.50;99698.97;5017971;28;45497;-46
2022/09/28 11:42:34;;;;;;;;;1.40;1.40;;;;;25.82;30.58;99705.59;5018198;28;45309;-44
2022/09/28 11:45:22;;;;;;;;;2.00;2.00;;;;;25.85;31.86;99705.06;5018238;28;45356;-45
2022/09/28 11:48:11;;;;;;;;;1.40;1.00;;;;;25.08;32.07;99707.66;5005902;28;45525;-45
2022/09/28 11:50:52;;;;;;;;;1.60;1.60;;;;;24.41;33.48;99699.44;5018665;28;45586;-44
2022/09/28 11:53:38;;;;;;;;;2.20;1.80;;;;;23.84;33.39;99696.28;5018052;28;45260;-45
2022/09/28 11:56:25;;;;;;;;;2.00;1.60;;;;;23.03;34.80;99707.16;5018231;28;45466;-44
2022/09/28 11:58:59;;;;;;;;;2.40;1.20;;;;;22.32;35.78;99703.50;5017887;28;46069;-43
2022/09/28 12:01:46;;;;;;;;;2.20;1.80;;;;;21.65;36.78;99712.41;5017977;28;45609;-44
2022/09/28 12:04:18;;;;;;;;;2.00;1.00;;;;;20.97;36.76;99687.06;5017971;28;45428;-44
2022/09/28 12:06:50;;;;;;;;;1.60;1.00;;;;;20.63;38.08;99699.63;5017962;28;45357;-45